Peoria, IL

11:12 PM CDT on October 30, 2014 (GMT -0500)
Greater Peoria Regional | Change Station
CLOSE
Current Station
Airport
Location: Peoria,
Elevation: 663 ft
Nearby Weather Stations
Active Advisory: Freeze Warning

Elev 663 ft 40.67 °N, 89.68 °W | Updated 18 minutes ago

Overcast
Overcast
46 °F
Feels Like 46 °F
N
0
Wind Variable Wind from North

Today
High -- | Low -- °F
--% Chance of Precip.
Yesterday
High -- | Low -- °F
Precip. -- in
7:26 AM 5:57 PM
Waxing Crescent, 51% visible
Pressure 30.10 in
Visibility 5.0 miles
Clouds Overcast 10000 ft
Dew Point 43 °F
Humidity 89%
Rainfall 0.07 in
Snow Depth Not available.
UV 0 out of 12
Pollen .10 out of 12
Air Quality Not available.
Flu Activity Not available.
METAR KPIA 310354Z 00000KT 5SM BR OVC100 08/06 A3009 RMK AO2 SLP192 T00780061

More Conditions Fewer Conditions

Pressure 30.10 in
Visibility 5.0 miles
Clouds Overcast 10000 ft
Dew Point 43 °F
Humidity 89%
Rainfall 0.07 in
Snow Depth Not available.
UV 0 out of 12
Pollen .10 out of 12
Air Quality Not available.
Flu Activity Not available.
METAR KPIA 310354Z 00000KT 5SM BR OVC100 08/06 A3009 RMK AO2 SLP192 T00780061

More Conditions Fewer Conditions

10-Day Weather Forecast

Almanac

Astronomy

Oct. 30, 2014 Rise Set
Actual Time
Civil Twilight
Nautical Twilight
Astronomical Twilight
Moon
Length of Visible Light
Length of Day
Tomorrow will be .
, % of the Moon is Illuminated

Today's Extremes

State Highs State Lows

Community

WunderPhotos

Upload Photos

1,766,564 photos uploaded!

WunderBlogs® & News

Nearby

Air Quality

  Air Quality AQ Index Pollutant
Not available.

Snow Depth

Station Depth Elevation

Earthquake Activity

City Distance Mag. Time & Date
Minimum magnitude displayed is 2.5.

Coastal Water Temperatures

Place Temperature

Nearby Weather Stations